sensor_id;sensor_type;location;lat;lon;timestamp;pressure;altitude;pressure_sealevel;temperature;humidity
70815;BME280;58428;49.478;10.986;2023-04-09T00:00:11;99161.69;;;8.76;100.00
70815;BME280;58428;49.478;10.986;2023-04-09T00:02:38;99160.72;;;8.85;100.00
70815;BME280;58428;49.478;10.986;2023-04-09T00:05:04;99156.63;;;8.87;100.00
70815;BME280;58428;49.478;10.986;2023-04-09T00:07:30;99156.81;;;8.78;100.00
70815;BME280;58428;49.478;10.986;2023-04-09T00:09:58;99156.81;;;8.78;100.00
70815;BME280;58428;49.478;10.986;2023-04-09T00:12:24;99159.13;;;8.84;100.00
70815;BME280;58428;49.478;10.986;2023-04-09T00:14:50;99149.44;;;8.83;100.00
70815;BME280;58428;49.478;10.986;2023-04-09T00:17:16;99152.31;;;8.73;100.00
70815;BME280;58428;49.478;10.986;2023-04-09T00:19:41;99143.56;;;8.63;100.00
70815;BME280;58428;49.478;10.986;2023-04-09T00:22:07;99154.06;;;8.64;100.00
70815;BME280;58428;49.478;10.986;2023-04-09T00:24:33;99150.78;;;8.67;100.00
70815;BME280;58428;49.478;10.986;2023-04-09T00:26:58;99152.38;;;8.68;100.00
70815;BME280;58428;49.478;10.986;2023-04-09T00:29:23;99148.09;;;8.67;100.00
70815;BME280;58428;49.478;10.986;2023-04-09T00:31:49;99137.47;;;8.57;100.00
70815;BME280;58428;49.478;10.986;2023-04-09T00:34:15;99141.97;;;8.62;100.00
70815;BME280;58428;49.478;10.986;2023-04-09T00:36:41;99141.47;;;8.60;100.00
70815;BME280;58428;49.478;10.986;2023-04-09T00:39:07;99145.47;;;8.62;100.00
70815;BME280;58428;49.478;10.986;2023-04-09T00:41:32;99144.28;;;8.68;100.00
70815;BME280;58428;49.478;10.986;2023-04-09T00:43:58;99146.41;;;8.71;100.00
70815;BME280;58428;49.478;10.986;2023-04-09T00:46:25;99145.59;;;8.71;100.00
70815;BME280;58428;49.478;10.986;2023-04-09T00:48:51;99139.91;;;8.72;100.00
70815;BME280;58428;49.478;10.986;2023-04-09T00:51:17;99141.09;;;8.66;100.00
70815;BME280;58428;49.478;10.986;2023-04-09T00:53:47;99146.69;;;8.70;100.00
70815;BME280;58428;49.478;10.986;2023-04-09T00:56:17;99148.59;;;8.69;100.00
70815;BME280;58428;49.478;10.986;2023-04-09T00:58:44;99146.28;;;8.63;100.00
70815;BME280;58428;49.478;10.986;2023-04-09T01:01:13;99142.78;;;8.62;100.00
70815;BME280;58428;49.478;10.986;2023-04-09T01:03:38;99149.66;;;8.55;100.00
70815;BME280;58428;49.478;10.986;2023-04-09T01:06:14;99145.03;;;8.55;100.00
70815;BME280;58428;49.478;10.986;2023-04-09T01:11:39;99150.75;;;8.54;100.00
70815;BME280;58428;49.478;10.986;2023-04-09T01:15:05;99147.75;;;8.55;100.00
70815;BME280;58428;49.478;10.986;2023-04-09T01:20:47;99149.75;;;8.32;100.00
70815;BME280;58428;49.478;10.986;2023-04-09T01:23:23;99146.78;;;8.33;100.00
70815;BME280;58428;49.478;10.986;2023-04-09T01:28:32;99148.97;;;8.31;100.00
70815;BME280;58428;49.478;10.986;2023-04-09T01:31:14;99139.94;;;8.22;100.00
70815;BME280;58428;49.478;10.986;2023-04-09T01:33:40;99149.19;;;8.16;100.00
70815;BME280;58428;49.478;10.986;2023-04-09T01:36:09;99143.63;;;8.08;100.00
70815;BME280;58428;49.478;10.986;2023-04-09T01:38:38;99147.13;;;8.08;100.00
70815;BME280;58428;49.478;10.986;2023-04-09T01:41:04;99149.69;;;8.00;100.00
70815;BME280;58428;49.478;10.986;2023-04-09T01:43:32;99148.56;;;8.01;100.00
70815;BME280;58428;49.478;10.986;2023-04-09T01:46:00;99150.88;;;8.12;100.00
70815;BME280;58428;49.478;10.986;2023-04-09T01:48:29;99143.50;;;8.18;100.00
70815;BME280;58428;49.478;10.986;2023-04-09T01:50:57;99144.09;;;8.15;100.00
70815;BME280;58428;49.478;10.986;2023-04-09T01:53:23;99146.91;;;8.05;100.00
70815;BME280;58428;49.478;10.986;2023-04-09T01:55:50;99154.97;;;8.05;100.00
70815;BME280;58428;49.478;10.986;2023-04-09T01:58:16;99146.63;;;8.06;100.00
70815;BME280;58428;49.478;10.986;2023-04-09T02:00:46;99150.34;;;8.10;100.00
70815;BME280;58428;49.478;10.986;2023-04-09T02:03:18;99137.19;;;8.09;100.00
70815;BME280;58428;49.478;10.986;2023-04-09T02:05:58;99151.88;;;7.98;100.00
70815;BME280;58428;49.478;10.986;2023-04-09T02:08:27;99147.13;;;7.90;100.00
70815;BME280;58428;49.478;10.986;2023-04-09T02:10:57;99149.31;;;7.88;100.00
70815;BME280;58428;49.478;10.986;2023-04-09T02:13:23;99153.19;;;7.82;100.00
70815;BME280;58428;49.478;10.986;2023-04-09T02:15:51;99159.06;;;7.84;100.00
70815;BME280;58428;49.478;10.986;2023-04-09T02:18:22;99162.34;;;8.00;100.00
70815;BME280;58428;49.478;10.986;2023-04-09T02:20:50;99158.28;;;8.02;100.00
70815;BME280;58428;49.478;10.986;2023-04-09T02:23:16;99155.06;;;8.00;100.00
70815;BME280;58428;49.478;10.986;2023-04-09T02:25:42;99158.00;;;8.04;100.00
70815;BME280;58428;49.478;10.986;2023-04-09T02:28:08;99163.38;;;8.04;100.00
70815;BME280;58428;49.478;10.986;2023-04-09T02:30:34;99151.22;;;8.06;100.00
70815;BME280;58428;49.478;10.986;2023-04-09T02:32:59;99160.19;;;8.02;100.00
70815;BME280;58428;49.478;10.986;2023-04-09T02:35:25;99158.56;;;8.01;100.00
70815;BME280;58428;49.478;10.986;2023-04-09T02:37:50;99154.84;;;7.97;100.00
70815;BME280;58428;49.478;10.986;2023-04-09T02:40:16;99159.06;;;7.84;100.00
70815;BME280;58428;49.478;10.986;2023-04-09T02:42:41;99160.88;;;7.89;100.00
70815;BME280;58428;49.478;10.986;2023-04-09T02:45:07;99150.34;;;7.92;100.00
70815;BME280;58428;49.478;10.986;2023-04-09T02:47:33;99160.97;;;7.84;100.00
70815;BME280;58428;49.478;10.986;2023-04-09T02:49:58;99151.97;;;7.70;100.00
70815;BME280;58428;49.478;10.986;2023-04-09T02:52:24;99155.00;;;7.69;100.00
70815;BME280;58428;49.478;10.986;2023-04-09T02:54:51;99150.44;;;7.64;100.00
70815;BME280;58428;49.478;10.986;2023-04-09T02:57:17;99151.78;;;7.67;100.00
70815;BME280;58428;49.478;10.986;2023-04-09T02:59:43;99150.25;;;7.61;100.00
70815;BME280;58428;49.478;10.986;2023-04-09T03:02:09;99153.16;;;7.41;100.00
70815;BME280;58428;49.478;10.986;2023-04-09T03:04:35;99153.06;;;7.28;100.00
70815;BME280;58428;49.478;10.986;2023-04-09T03:07:00;99146.59;;;7.29;100.00
70815;BME280;58428;49.478;10.986;2023-04-09T03:09:26;99149.69;;;7.17;100.00
70815;BME280;58428;49.478;10.986;2023-04-09T03:11:53;99146.47;;;7.15;100.00
70815;BME280;58428;49.478;10.986;2023-04-09T03:14:20;99153.56;;;7.06;100.00
70815;BME280;58428;49.478;10.986;2023-04-09T03:16:45;99143.75;;;6.97;100.00
70815;BME280;58428;49.478;10.986;2023-04-09T03:19:11;99145.91;;;6.95;100.00
70815;BME280;58428;49.478;10.986;2023-04-09T03:21:37;99142.47;;;6.90;100.00
70815;BME280;58428;49.478;10.986;2023-04-09T03:24:03;99149.25;;;6.82;100.00
70815;BME280;58428;49.478;10.986;2023-04-09T03:26:29;99143.91;;;6.77;100.00
70815;BME280;58428;49.478;10.986;2023-04-09T03:29:03;99136.19;;;6.71;100.00
70815;BME280;58428;49.478;10.986;2023-04-09T03:31:29;99147.53;;;6.68;100.00
70815;BME280;58428;49.478;10.986;2023-04-09T03:33:55;99151.28;;;6.67;100.00
70815;BME280;58428;49.478;10.986;2023-04-09T03:36:21;99153.72;;;6.63;100.00
70815;BME280;58428;49.478;10.986;2023-04-09T03:38:47;99156.78;;;6.52;100.00
70815;BME280;58428;49.478;10.986;2023-04-09T03:41:13;99154.16;;;6.47;100.00
70815;BME280;58428;49.478;10.986;2023-04-09T03:43:40;99156.84;;;6.47;100.00
70815;BME280;58428;49.478;10.986;2023-04-09T03:46:15;99162.78;;;6.44;100.00
70815;BME280;58428;49.478;10.986;2023-04-09T03:48:42;99160.94;;;6.40;100.00
70815;BME280;58428;49.478;10.986;2023-04-09T03:51:12;99163.16;;;6.33;100.00
70815;BME280;58428;49.478;10.986;2023-04-09T03:53:41;99160.78;;;6.26;100.00
70815;BME280;58428;49.478;10.986;2023-04-09T03:56:07;99173.69;;;6.24;100.00
70815;BME280;58428;49.478;10.986;2023-04-09T03:58:36;99166.75;;;6.19;100.00
70815;BME280;58428;49.478;10.986;2023-04-09T04:01:02;99171.38;;;6.08;100.00
70815;BME280;58428;49.478;10.986;2023-04-09T04:03:29;99173.56;;;6.06;100.00
70815;BME280;58428;49.478;10.986;2023-04-09T04:06:02;99177.81;;;6.07;100.00
70815;BME280;58428;49.478;10.986;2023-04-09T04:08:28;99169.25;;;6.05;100.00
70815;BME280;58428;49.478;10.986;2023-04-09T04:10:53;99170.88;;;6.06;100.00
70815;BME280;58428;49.478;10.986;2023-04-09T04:13:19;99176.78;;;6.03;100.00
70815;BME280;58428;49.478;10.986;2023-04-09T04:15:44;99173.84;;;6.00;100.00
70815;BME280;58428;49.478;10.986;2023-04-09T04:18:10;99167.16;;;5.97;100.00
70815;BME280;58428;49.478;10.986;2023-04-09T04:20:36;99175.47;;;5.96;100.00
70815;BME280;58428;49.478;10.986;2023-04-09T04:25:47;99173.44;;;5.78;100.00
70815;BME280;58428;49.478;10.986;2023-04-09T04:28:15;99184.75;;;5.75;100.00
70815;BME280;58428;49.478;10.986;2023-04-09T04:30:45;99182.53;;;5.82;100.00
70815;BME280;58428;49.478;10.986;2023-04-09T04:33:15;99192.75;;;5.85;100.00
70815;BME280;58428;49.478;10.986;2023-04-09T04:36:11;99193.59;;;5.76;100.00
70815;BME280;58428;49.478;10.986;2023-04-09T04:38:46;99191.19;;;5.74;100.00
70815;BME280;58428;49.478;10.986;2023-04-09T04:42:01;99197.09;;;5.71;100.00
70815;BME280;58428;49.478;10.986;2023-04-09T04:44:34;99202.19;;;5.73;100.00
70815;BME280;58428;49.478;10.986;2023-04-09T04:50:23;99207.56;;;5.63;100.00
70815;BME280;58428;49.478;10.986;2023-04-09T04:53:02;99204.31;;;5.71;100.00
70815;BME280;58428;49.478;10.986;2023-04-09T04:55:49;99205.41;;;5.70;100.00
70815;BME280;58428;49.478;10.986;2023-04-09T04:58:27;99208.38;;;5.73;100.00
70815;BME280;58428;49.478;10.986;2023-04-09T05:01:17;99211.59;;;5.75;100.00
70815;BME280;58428;49.478;10.986;2023-04-09T05:03:43;99210.75;;;5.80;100.00
70815;BME280;58428;49.478;10.986;2023-04-09T05:06:13;99212.59;;;5.84;100.00
70815;BME280;58428;49.478;10.986;2023-04-09T05:08:49;99207.25;;;5.84;100.00
70815;BME280;58428;49.478;10.986;2023-04-09T05:11:15;99215.28;;;5.84;100.00
70815;BME280;58428;49.478;10.986;2023-04-09T05:13:44;99206.69;;;5.87;100.00
70815;BME280;58428;49.478;10.986;2023-04-09T05:16:25;99206.44;;;5.84;100.00
70815;BME280;58428;49.478;10.986;2023-04-09T05:19:11;99202.97;;;5.83;100.00
70815;BME280;58428;49.478;10.986;2023-04-09T05:21:37;99218.81;;;5.85;100.00
70815;BME280;58428;49.478;10.986;2023-04-09T05:24:03;99205.59;;;5.88;100.00
70815;BME280;58428;49.478;10.986;2023-04-09T05:26:39;99206.69;;;5.87;100.00
70815;BME280;58428;49.478;10.986;2023-04-09T05:29:16;99213.66;;;5.88;100.00
70815;BME280;58428;49.478;10.986;2023-04-09T05:31:58;99209.91;;;5.89;100.00
70815;BME280;58428;49.478;10.986;2023-04-09T05:34:55;99212.09;;;5.82;100.00
70815;BME280;58428;49.478;10.986;2023-04-09T05:37:28;99211.28;;;5.82;100.00
70815;BME280;58428;49.478;10.986;2023-04-09T05:40:06;99213.69;;;5.83;100.00
70815;BME280;58428;49.478;10.986;2023-04-09T05:42:32;99207.22;;;5.89;100.00
70815;BME280;58428;49.478;10.986;2023-04-09T05:44:58;99218.50;;;5.91;100.00
70815;BME280;58428;49.478;10.986;2023-04-09T05:47:29;99221.13;;;5.96;100.00
70815;BME280;58428;49.478;10.986;2023-04-09T05:50:37;99212.59;;;5.89;100.00
70815;BME280;58428;49.478;10.986;2023-04-09T05:53:02;99221.66;;;6.03;100.00
70815;BME280;58428;49.478;10.986;2023-04-09T05:55:40;99216.47;;;6.11;100.00
70815;BME280;58428;49.478;10.986;2023-04-09T05:58:18;99215.63;;;6.21;100.00
70815;BME280;58428;49.478;10.986;2023-04-09T06:00:56;99220.66;;;6.32;100.00
70815;BME280;58428;49.478;10.986;2023-04-09T06:03:54;99225.50;;;6.30;100.00
70815;BME280;58428;49.478;10.986;2023-04-09T06:06:30;99223.88;;;6.29;100.00
70815;BME280;58428;49.478;10.986;2023-04-09T06:08:58;99219.34;;;6.29;100.00
70815;BME280;58428;49.478;10.986;2023-04-09T06:11:44;99221.94;;;6.39;100.00
70815;BME280;58428;49.478;10.986;2023-04-09T06:14:30;99222.19;;;6.43;100.00
70815;BME280;58428;49.478;10.986;2023-04-09T06:17:13;99222.41;;;6.51;100.00
70815;BME280;58428;49.478;10.986;2023-04-09T06:19:53;99223.16;;;6.57;100.00
70815;BME280;58428;49.478;10.986;2023-04-09T06:22:36;99223.94;;;6.62;100.00
70815;BME280;58428;49.478;10.986;2023-04-09T06:25:21;99219.81;;;6.69;100.00
70815;BME280;58428;49.478;10.986;2023-04-09T06:27:54;99225.94;;;6.80;100.00
70815;BME280;58428;49.478;10.986;2023-04-09T06:30:30;99223.75;;;6.82;100.00
70815;BME280;58428;49.478;10.986;2023-04-09T06:33:19;99225.84;;;6.90;100.00
70815;BME280;58428;49.478;10.986;2023-04-09T06:36:02;99232.16;;;7.03;100.00
70815;BME280;58428;49.478;10.986;2023-04-09T06:38:52;99232.81;;;7.19;100.00
70815;BME280;58428;49.478;10.986;2023-04-09T06:41:40;99232.19;;;7.27;100.00
70815;BME280;58428;49.478;10.986;2023-04-09T06:44:08;99236.97;;;7.34;100.00
70815;BME280;58428;49.478;10.986;2023-04-09T06:46:39;99236.06;;;7.44;100.00
70815;BME280;58428;49.478;10.986;2023-04-09T06:49:06;99239.16;;;7.56;100.00
70815;BME280;58428;49.478;10.986;2023-04-09T06:51:35;99238.75;;;7.67;100.00
70815;BME280;58428;49.478;10.986;2023-04-09T06:54:00;99234.81;;;7.78;100.00
70815;BME280;58428;49.478;10.986;2023-04-09T06:56:26;99239.00;;;7.89;100.00
70815;BME280;58428;49.478;10.986;2023-04-09T06:58:56;99242.44;;;7.94;100.00
70815;BME280;58428;49.478;10.986;2023-04-09T07:04:11;99241.97;;;8.10;100.00
70815;BME280;58428;49.478;10.986;2023-04-09T07:06:47;99240.13;;;8.11;100.00
70815;BME280;58428;49.478;10.986;2023-04-09T07:09:17;99240.63;;;8.13;100.00
70815;BME280;58428;49.478;10.986;2023-04-09T07:11:49;99238.63;;;8.18;100.00
70815;BME280;58428;49.478;10.986;2023-04-09T07:14:14;99238.50;;;8.28;100.00
70815;BME280;58428;49.478;10.986;2023-04-09T07:16:53;99240.25;;;8.38;100.00
70815;BME280;58428;49.478;10.986;2023-04-09T07:20:01;99241.63;;;8.53;100.00
70815;BME280;58428;49.478;10.986;2023-04-09T07:22:12;99237.41;;;8.66;100.00
70815;BME280;58428;49.478;10.986;2023-04-09T07:24:45;99240.50;;;8.73;100.00
70815;BME280;58428;49.478;10.986;2023-04-09T07:27:14;99241.75;;;8.80;100.00
70815;BME280;58428;49.478;10.986;2023-04-09T07:29:45;99241.56;;;8.90;100.00
70815;BME280;58428;49.478;10.986;2023-04-09T07:32:13;99246.78;;;8.86;100.00
70815;BME280;58428;49.478;10.986;2023-04-09T07:34:59;99243.69;;;8.93;100.00
70815;BME280;58428;49.478;10.986;2023-04-09T07:37:34;99237.53;;;9.06;100.00
70815;BME280;58428;49.478;10.986;2023-04-09T07:40:03;99238.38;;;9.19;100.00
70815;BME280;58428;49.478;10.986;2023-04-09T07:42:35;99230.88;;;9.30;100.00
70815;BME280;58428;49.478;10.986;2023-04-09T07:51:05;99234.22;;;9.53;100.00
70815;BME280;58428;49.478;10.986;2023-04-09T07:53:34;99238.22;;;9.56;100.00
70815;BME280;58428;49.478;10.986;2023-04-09T07:56:10;99232.81;;;9.56;100.00
70815;BME280;58428;49.478;10.986;2023-04-09T07:58:36;99233.44;;;9.66;100.00
70815;BME280;58428;49.478;10.986;2023-04-09T08:01:16;99241.63;;;9.75;100.00
70815;BME280;58428;49.478;10.986;2023-04-09T08:03:57;99239.41;;;9.90;100.00
70815;BME280;58428;49.478;10.986;2023-04-09T08:06:26;99241.84;;;9.92;100.00
70815;BME280;58428;49.478;10.986;2023-04-09T08:09:05;99243.44;;;10.06;100.00
70815;BME280;58428;49.478;10.986;2023-04-09T08:11:36;99246.13;;;10.06;100.00
70815;BME280;58428;49.478;10.986;2023-04-09T08:14:11;99235.44;;;10.14;100.00
70815;BME280;58428;49.478;10.986;2023-04-09T08:16:48;99239.50;;;10.25;100.00
70815;BME280;58428;49.478;10.986;2023-04-09T08:19:28;99243.31;;;10.37;100.00
70815;BME280;58428;49.478;10.986;2023-04-09T08:22:13;99237.31;;;10.49;100.00
70815;BME280;58428;49.478;10.986;2023-04-09T08:24:49;99237.44;;;10.57;100.00
70815;BME280;58428;49.478;10.986;2023-04-09T08:27:15;99235.03;;;10.56;100.00
70815;BME280;58428;49.478;10.986;2023-04-09T08:29:53;99232.91;;;10.53;100.00
70815;BME280;58428;49.478;10.986;2023-04-09T08:32:22;99232.81;;;10.58;100.00
70815;BME280;58428;49.478;10.986;2023-04-09T08:34:51;99238.75;;;10.68;100.00
70815;BME280;58428;49.478;10.986;2023-04-09T08:37:22;99236.41;;;10.66;100.00
70815;BME280;58428;49.478;10.986;2023-04-09T08:39:56;99231.63;;;10.72;100.00
70815;BME280;58428;49.478;10.986;2023-04-09T08:42:28;99229.13;;;10.75;100.00
70815;BME280;58428;49.478;10.986;2023-04-09T08:45:02;99231.28;;;10.87;100.00
70815;BME280;58428;49.478;10.986;2023-04-09T08:47:43;99229.25;;;10.92;100.00
70815;BME280;58428;49.478;10.986;2023-04-09T08:50:24;99231.06;;;11.05;100.00
70815;BME280;58428;49.478;10.986;2023-04-09T08:52:56;99231.16;;;11.13;100.00
70815;BME280;58428;49.478;10.986;2023-04-09T08:55:27;99221.78;;;11.19;100.00
70815;BME280;58428;49.478;10.986;2023-04-09T09:01:07;99220.88;;;11.32;100.00
70815;BME280;58428;49.478;10.986;2023-04-09T09:04:06;99229.00;;;11.54;100.00
70815;BME280;58428;49.478;10.986;2023-04-09T09:06:39;99216.28;;;11.63;100.00
70815;BME280;58428;49.478;10.986;2023-04-09T09:09:24;99220.72;;;11.59;100.00
70815;BME280;58428;49.478;10.986;2023-04-09T09:12:08;99225.06;;;11.68;100.00
70815;BME280;58428;49.478;10.986;2023-04-09T09:14:43;99225.25;;;11.72;100.00
70815;BME280;58428;49.478;10.986;2023-04-09T09:17:59;99223.72;;;11.87;100.00
70815;BME280;58428;49.478;10.986;2023-04-09T09:20:39;99224.22;;;11.98;100.00
70815;BME280;58428;49.478;10.986;2023-04-09T09:23:45;99231.13;;;12.12;100.00
70815;BME280;58428;49.478;10.986;2023-04-09T09:26:32;99231.25;;;12.07;100.00
70815;BME280;58428;49.478;10.986;2023-04-09T09:29:06;99225.84;;;12.07;100.00
70815;BME280;58428;49.478;10.986;2023-04-09T09:31:58;99232.75;;;12.21;100.00
70815;BME280;58428;49.478;10.986;2023-04-09T09:35:30;99223.47;;;12.22;100.00
70815;BME280;58428;49.478;10.986;2023-04-09T09:38:31;99227.47;;;12.25;100.00
70815;BME280;58428;49.478;10.986;2023-04-09T09:41:15;99234.81;;;12.24;100.00
70815;BME280;58428;49.478;10.986;2023-04-09T09:46:38;99223.22;;;12.66;100.00
70815;BME280;58428;49.478;10.986;2023-04-09T09:49:18;99222.72;;;12.97;100.00
70815;BME280;58428;49.478;10.986;2023-04-09T09:51:52;99224.63;;;13.05;100.00
70815;BME280;58428;49.478;10.986;2023-04-09T09:54:33;99215.34;;;13.06;100.00
70815;BME280;58428;49.478;10.986;2023-04-09T09:57:13;99222.06;;;13.17;100.00
70815;BME280;58428;49.478;10.986;2023-04-09T10:03:18;99212.41;;;13.36;100.00
70815;BME280;58428;49.478;10.986;2023-04-09T10:05:48;99213.03;;;13.33;100.00
70815;BME280;58428;49.478;10.986;2023-04-09T10:08:19;99210.72;;;13.07;100.00
70815;BME280;58428;49.478;10.986;2023-04-09T10:10:45;99212.50;;;12.94;100.00
70815;BME280;58428;49.478;10.986;2023-04-09T10:13:19;99213.16;;;12.91;100.00
70815;BME280;58428;49.478;10.986;2023-04-09T10:15:48;99207.53;;;12.63;100.00
70815;BME280;58428;49.478;10.986;2023-04-09T10:18:38;99204.97;;;12.58;100.00
70815;BME280;58428;49.478;10.986;2023-04-09T10:23:55;99199.53;;;13.00;100.00
70815;BME280;58428;49.478;10.986;2023-04-09T10:29:34;99197.00;;;12.78;100.00
70815;BME280;58428;49.478;10.986;2023-04-09T10:35:16;99185.19;;;12.99;100.00
70815;BME280;58428;49.478;10.986;2023-04-09T10:37:55;99184.78;;;13.26;100.00
70815;BME280;58428;49.478;10.986;2023-04-09T10:40:33;99190.16;;;13.43;100.00
70815;BME280;58428;49.478;10.986;2023-04-09T10:43:10;99178.75;;;13.58;100.00
70815;BME280;58428;49.478;10.986;2023-04-09T10:45:42;99178.13;;;13.52;100.00
70815;BME280;58428;49.478;10.986;2023-04-09T10:48:14;99186.25;;;13.60;100.00
70815;BME280;58428;49.478;10.986;2023-04-09T10:50:54;99179.94;;;13.77;100.00
70815;BME280;58428;49.478;10.986;2023-04-09T10:53:53;99182.50;;;14.10;100.00
70815;BME280;58428;49.478;10.986;2023-04-09T10:56:42;99175.00;;;14.28;100.00
70815;BME280;58428;49.478;10.986;2023-04-09T10:59:37;99178.34;;;14.33;100.00
70815;BME280;58428;49.478;10.986;2023-04-09T11:02:16;99180.75;;;14.06;100.00
70815;BME280;58428;49.478;10.986;2023-04-09T11:07:46;99170.22;;;13.96;100.00
70815;BME280;58428;49.478;10.986;2023-04-09T11:10:39;99158.47;;;14.12;100.00
70815;BME280;58428;49.478;10.986;2023-04-09T11:13:27;99162.47;;;14.15;99.76
70815;BME280;58428;49.478;10.986;2023-04-09T11:16:16;99159.34;;;14.25;100.00
70815;BME280;58428;49.478;10.986;2023-04-09T11:19:01;99173.06;;;14.08;97.83
70815;BME280;58428;49.478;10.986;2023-04-09T11:21:36;99172.63;;;13.98;92.46
70815;BME280;58428;49.478;10.986;2023-04-09T11:24:22;99163.41;;;14.19;95.00
70815;BME280;58428;49.478;10.986;2023-04-09T11:27:19;99165.50;;;14.34;88.67
70815;BME280;58428;49.478;10.986;2023-04-09T11:29:57;99163.31;;;14.47;90.00
70815;BME280;58428;49.478;10.986;2023-04-09T11:32:32;99169.63;;;14.60;89.76
70815;BME280;58428;49.478;10.986;2023-04-09T11:35:15;99163.28;;;14.56;84.07
70815;BME280;58428;49.478;10.986;2023-04-09T11:40:56;99162.06;;;14.65;79.08
70815;BME280;58428;49.478;10.986;2023-04-09T11:43:43;99164.03;;;14.76;81.83
70815;BME280;58428;49.478;10.986;2023-04-09T11:46:51;99151.13;;;14.85;76.11
70815;BME280;58428;49.478;10.986;2023-04-09T11:50:22;99168.75;;;15.00;74.65
70815;BME280;58428;49.478;10.986;2023-04-09T11:52:57;99160.34;;;15.25;78.02
70815;BME280;58428;49.478;10.986;2023-04-09T11:55:33;99156.84;;;15.36;77.03
70815;BME280;58428;49.478;10.986;2023-04-09T11:58:36;99158.13;;;15.50;72.39
70815;BME280;58428;49.478;10.986;2023-04-09T12:01:07;99156.97;;;15.75;76.82
70815;BME280;58428;49.478;10.986;2023-04-09T12:03:33;99156.97;;;15.63;67.76
70815;BME280;58428;49.478;10.986;2023-04-09T12:09:15;99151.97;;;15.89;73.92
70815;BME280;58428;49.478;10.986;2023-04-09T12:12:06;99150.38;;;16.00;69.81
70815;BME280;58428;49.478;10.986;2023-04-09T12:14:36;99151.28;;;15.92;68.84
70815;BME280;58428;49.478;10.986;2023-04-09T12:17:07;99150.69;;;16.10;74.30
70815;BME280;58428;49.478;10.986;2023-04-09T12:19:38;99153.91;;;16.24;72.12
70815;BME280;58428;49.478;10.986;2023-04-09T12:22:33;99152.41;;;16.26;69.71
70815;BME280;58428;49.478;10.986;2023-04-09T12:25:11;99146.22;;;16.41;73.43
70815;BME280;58428;49.478;10.986;2023-04-09T12:28:06;99137.78;;;16.46;72.21
70815;BME280;58428;49.478;10.986;2023-04-09T12:34:03;99146.72;;;16.70;65.29
70815;BME280;58428;49.478;10.986;2023-04-09T12:36:29;99136.56;;;16.98;69.47
70815;BME280;58428;49.478;10.986;2023-04-09T12:39:11;99143.50;;;17.38;67.31
70815;BME280;58428;49.478;10.986;2023-04-09T12:42:05;99137.94;;;17.65;64.16
70815;BME280;58428;49.478;10.986;2023-04-09T12:44:41;99135.66;;;17.67;63.71
70815;BME280;58428;49.478;10.986;2023-04-09T12:50:25;99125.47;;;17.98;61.09
70815;BME280;58428;49.478;10.986;2023-04-09T12:52:55;99114.31;;;18.22;65.49
70815;BME280;58428;49.478;10.986;2023-04-09T12:55:41;99119.47;;;18.08;60.56
70815;BME280;58428;49.478;10.986;2023-04-09T12:58:14;99118.28;;;17.75;60.46
70815;BME280;58428;49.478;10.986;2023-04-09T13:00:43;99113.75;;;17.67;61.75
70815;BME280;58428;49.478;10.986;2023-04-09T13:03:14;99117.31;;;17.37;62.15
70815;BME280;58428;49.478;10.986;2023-04-09T13:05:45;99116.75;;;17.16;63.10
70815;BME280;58428;49.478;10.986;2023-04-09T13:08:16;99110.78;;;16.99;66.28
70815;BME280;58428;49.478;10.986;2023-04-09T13:10:44;99119.41;;;16.86;64.57
70815;BME280;58428;49.478;10.986;2023-04-09T13:13:25;99117.13;;;16.60;65.39
70815;BME280;58428;49.478;10.986;2023-04-09T13:15:51;99117.19;;;16.49;66.46
70815;BME280;58428;49.478;10.986;2023-04-09T13:18:22;99110.97;;;16.36;66.88
70815;BME280;58428;49.478;10.986;2023-04-09T13:20:48;99112.16;;;16.51;68.63
70815;BME280;58428;49.478;10.986;2023-04-09T13:23:19;99111.34;;;16.23;64.15
70815;BME280;58428;49.478;10.986;2023-04-09T13:25:50;99109.25;;;16.44;64.99
70815;BME280;58428;49.478;10.986;2023-04-09T13:28:40;99102.78;;;16.63;66.13
70815;BME280;58428;49.478;10.986;2023-04-09T13:31:08;99102.13;;;16.82;67.18
70815;BME280;58428;49.478;10.986;2023-04-09T13:33:37;99097.09;;;16.68;64.27
70815;BME280;58428;49.478;10.986;2023-04-09T13:36:07;99098.91;;;16.64;67.08
70815;BME280;58428;49.478;10.986;2023-04-09T13:38:53;99091.75;;;16.60;63.47
70815;BME280;58428;49.478;10.986;2023-04-09T13:41:51;99100.56;;;16.54;64.85
70815;BME280;58428;49.478;10.986;2023-04-09T13:44:37;99087.81;;;16.19;64.72
70815;BME280;58428;49.478;10.986;2023-04-09T13:47:15;99099.53;;;16.07;67.56
70815;BME280;58428;49.478;10.986;2023-04-09T13:49:44;99099.47;;;15.80;66.59
70815;BME280;58428;49.478;10.986;2023-04-09T13:52:36;99092.41;;;15.67;67.15
70815;BME280;58428;49.478;10.986;2023-04-09T13:55:04;99088.53;;;15.92;67.76
70815;BME280;58428;49.478;10.986;2023-04-09T13:57:42;99084.59;;;16.28;68.35
70815;BME280;58428;49.478;10.986;2023-04-09T14:02:44;99079.75;;;16.92;69.54
70815;BME280;58428;49.478;10.986;2023-04-09T14:05:15;99072.94;;;16.86;68.00
70815;BME280;58428;49.478;10.986;2023-04-09T14:07:47;99068.91;;;16.95;69.38
70815;BME280;58428;49.478;10.986;2023-04-09T14:10:19;99070.66;;;17.03;68.75
70815;BME280;58428;49.478;10.986;2023-04-09T14:12:49;99072.00;;;17.09;67.55
70815;BME280;58428;49.478;10.986;2023-04-09T14:15:52;99067.06;;;16.29;63.53
70815;BME280;58428;49.478;10.986;2023-04-09T14:18:32;99068.78;;;16.10;68.35
70815;BME280;58428;49.478;10.986;2023-04-09T14:21:02;99063.22;;;15.80;69.13
70815;BME280;58428;49.478;10.986;2023-04-09T14:23:28;99065.13;;;15.67;70.14
70815;BME280;58428;49.478;10.986;2023-04-09T14:25:56;99062.44;;;15.44;70.22